createdAt,value
2023-05-21T00:01:07.274Z,89.83
2023-05-21T00:03:37.265Z,89.65
2023-05-21T00:06:05.503Z,89.58
2023-05-21T00:08:35.478Z,89.43
2023-05-21T00:11:03.449Z,89.29
2023-05-21T00:13:31.314Z,89.24
2023-05-21T00:15:59.251Z,89.17
2023-05-21T00:18:27.146Z,89.10
2023-05-21T00:20:55.775Z,89.07
2023-05-21T00:23:23.667Z,89.18
2023-05-21T00:25:51.836Z,89.25
2023-05-21T00:28:19.840Z,89.34
2023-05-21T00:30:48.650Z,89.39
2023-05-21T00:33:17.044Z,89.51
2023-05-21T00:35:45.103Z,89.59
2023-05-21T00:38:13.046Z,89.56
2023-05-21T00:40:42.648Z,89.61
2023-05-21T00:43:13.650Z,89.62
2023-05-21T00:45:46.068Z,89.62
2023-05-21T00:48:14.546Z,89.70
2023-05-21T00:50:43.363Z,89.75
2023-05-21T00:53:12.195Z,89.81
2023-05-21T00:55:40.655Z,89.98
2023-05-21T00:58:09.428Z,89.94
2023-05-21T01:00:38.908Z,89.97
2023-05-21T01:03:07.733Z,90.08
2023-05-21T01:05:36.154Z,90.13
2023-05-21T01:08:04.716Z,90.13
2023-05-21T01:10:32.739Z,90.19
2023-05-21T01:13:01.190Z,90.21
2023-05-21T01:15:29.525Z,90.23
2023-05-21T01:17:58.624Z,90.75
2023-05-21T01:20:28.010Z,90.64
2023-05-21T01:22:57.414Z,90.55
2023-05-21T01:25:25.916Z,90.57
2023-05-21T01:27:54.008Z,90.58
2023-05-21T01:30:24.702Z,90.60
2023-05-21T01:33:08.896Z,91.07
2023-05-21T01:35:40.642Z,92.04
2023-05-21T01:38:29.844Z,91.49
2023-05-21T01:41:06.176Z,91.56
2023-05-21T01:43:38.228Z,91.75
2023-05-21T01:46:08.252Z,91.88
2023-05-21T01:48:37.250Z,91.89
2023-05-21T01:51:07.243Z,91.98
2023-05-21T01:53:35.335Z,92.04
2023-05-21T01:56:04.220Z,92.09
2023-05-21T01:58:32.196Z,92.15
2023-05-21T02:01:00.139Z,92.19
2023-05-21T02:03:29.351Z,92.23
2023-05-21T02:05:57.426Z,92.22
2023-05-21T02:08:25.278Z,92.35
2023-05-21T02:10:53.248Z,92.37
2023-05-21T02:13:23.555Z,92.45
2023-05-21T02:15:55.918Z,92.61
2023-05-21T02:18:23.934Z,92.64
2023-05-21T02:20:51.910Z,92.68
2023-05-21T02:23:19.899Z,92.82
2023-05-21T02:25:47.854Z,92.91
2023-05-21T02:28:17.259Z,92.98
2023-05-21T02:30:45.190Z,93.06
2023-05-21T02:33:15.607Z,93.12
2023-05-21T02:35:43.522Z,93.18
2023-05-21T02:38:11.846Z,93.47
2023-05-21T02:40:39.709Z,93.51
2023-05-21T02:43:07.802Z,93.53
2023-05-21T02:45:35.896Z,93.87
2023-05-21T02:48:04.086Z,93.73
2023-05-21T02:50:31.952Z,93.75
2023-05-21T02:53:01.069Z,93.78
2023-05-21T02:55:28.974Z,94.06
2023-05-21T02:57:57.127Z,94.47
2023-05-21T03:00:25.098Z,94.68
2023-05-21T03:02:53.142Z,94.70
2023-05-21T03:05:21.270Z,94.75
2023-05-21T03:07:49.153Z,94.66
2023-05-21T03:10:17.364Z,94.80
2023-05-21T03:12:45.306Z,94.86
2023-05-21T03:15:15.995Z,94.79
2023-05-21T03:17:45.748Z,94.88
2023-05-21T03:20:19.970Z,94.76
2023-05-21T03:22:48.005Z,94.93
2023-05-21T03:25:16.231Z,94.97
2023-05-21T03:27:44.145Z,95.19
2023-05-21T03:30:12.624Z,95.45
2023-05-21T03:32:42.620Z,95.37
2023-05-21T03:35:10.603Z,95.43
2023-05-21T03:37:38.546Z,95.48
2023-05-21T03:40:07.650Z,96.10
2023-05-21T03:42:35.603Z,96.18
2023-05-21T03:45:04.748Z,96.15
2023-05-21T03:47:32.733Z,96.10
2023-05-21T03:50:00.751Z,96.27
2023-05-21T03:52:28.685Z,96.64
2023-05-21T03:54:56.618Z,96.68
2023-05-21T03:57:24.543Z,96.79
2023-05-21T03:59:52.632Z,96.90
2023-05-21T04:02:20.587Z,96.94
2023-05-21T04:04:48.983Z,97.03
2023-05-21T04:07:20.444Z,97.34
2023-05-21T04:09:48.410Z,97.43
2023-05-21T04:12:16.289Z,98.01
2023-05-21T04:14:44.231Z,97.99
2023-05-21T04:17:13.997Z,98.03
2023-05-21T04:19:42.240Z,98.06
2023-05-21T04:22:11.888Z,98.14
2023-05-21T04:24:39.933Z,98.04
2023-05-21T04:27:08.210Z,98.08
2023-05-21T04:29:36.517Z,98.23
2023-05-21T04:32:05.447Z,98.39
2023-05-21T04:34:35.327Z,98.21
2023-05-21T04:37:06.078Z,98.17
2023-05-21T04:39:34.061Z,98.23
2023-05-21T04:42:03.493Z,98.13
2023-05-21T04:44:31.468Z,98.47
2023-05-21T04:47:00.135Z,98.30
2023-05-21T04:49:28.351Z,98.16
2023-05-21T04:51:56.455Z,98.08
2023-05-21T04:54:24.638Z,98.00
2023-05-21T04:56:52.564Z,98.00
2023-05-21T04:59:21.345Z,97.97
2023-05-21T05:01:49.329Z,98.03
2023-05-21T05:04:17.222Z,97.98
2023-05-21T05:06:45.117Z,98.00
2023-05-21T05:09:13.070Z,98.14
2023-05-21T05:11:41.101Z,98.24
2023-05-21T05:14:09.008Z,98.31
2023-05-21T05:16:37.729Z,98.31
2023-05-21T05:19:05.762Z,98.45
2023-05-21T05:21:34.479Z,98.61
2023-05-21T05:24:02.451Z,98.85
2023-05-21T05:26:30.356Z,98.69
2023-05-21T05:28:58.289Z,98.85
2023-05-21T05:31:26.404Z,98.87
2023-05-21T05:33:54.417Z,98.79
2023-05-21T05:36:22.555Z,98.93
2023-05-21T05:38:50.480Z,98.98
2023-05-21T05:41:18.356Z,98.90
2023-05-21T05:43:46.296Z,98.88
2023-05-21T05:46:14.299Z,98.84
2023-05-21T05:48:42.280Z,98.98
2023-05-21T05:51:10.524Z,99.04
2023-05-21T05:53:38.527Z,99.01
2023-05-21T05:56:06.831Z,99.04
2023-05-21T05:58:34.958Z,98.90
2023-05-21T06:01:03.349Z,98.88
2023-05-21T06:03:31.382Z,98.67
2023-05-21T06:05:59.520Z,98.60
2023-05-21T06:08:27.457Z,98.87
2023-05-21T06:10:55.386Z,98.62
2023-05-21T06:13:23.256Z,98.62
2023-05-21T06:15:51.171Z,98.46
2023-05-21T06:18:19.089Z,98.31
2023-05-21T06:20:47.045Z,98.26
2023-05-21T06:23:15.384Z,98.16
2023-05-21T06:25:43.297Z,98.00
2023-05-21T06:28:11.230Z,97.82
2023-05-21T06:30:39.106Z,97.68
2023-05-21T06:33:08.286Z,97.45
2023-05-21T06:35:38.444Z,97.28
2023-05-21T06:38:06.601Z,97.09
2023-05-21T06:40:35.214Z,96.72
2023-05-21T06:43:03.266Z,96.82
2023-05-21T06:45:31.257Z,96.42
2023-05-21T06:47:59.287Z,96.19
2023-05-21T06:50:27.298Z,95.91
2023-05-21T06:52:55.220Z,95.79
2023-05-21T06:55:23.323Z,95.86
2023-05-21T06:57:51.270Z,95.73
2023-05-21T07:00:19.962Z,95.46
2023-05-21T07:02:47.914Z,95.19
2023-05-21T07:05:15.990Z,95.10
2023-05-21T07:07:43.960Z,94.46
2023-05-21T07:10:11.977Z,94.11
2023-05-21T07:12:39.940Z,93.66
2023-05-21T07:15:08.348Z,93.09
2023-05-21T07:17:36.372Z,92.63
2023-05-21T07:20:07.596Z,92.41
2023-05-21T07:22:35.546Z,90.80
2023-05-21T07:25:03.562Z,90.99
2023-05-21T07:27:31.578Z,90.23
2023-05-21T07:29:59.467Z,89.68
2023-05-21T07:32:30.306Z,88.84
2023-05-21T07:34:58.444Z,87.95
2023-05-21T07:37:27.061Z,86.21
2023-05-21T07:39:56.262Z,86.78
2023-05-21T07:42:24.167Z,86.17
2023-05-21T07:44:52.160Z,85.68
2023-05-21T07:47:20.148Z,83.88
2023-05-21T07:49:48.174Z,84.37
2023-05-21T07:52:16.037Z,85.10
2023-05-21T07:54:44.236Z,84.65
2023-05-21T07:57:12.284Z,84.73
2023-05-21T07:59:40.228Z,84.51
2023-05-21T08:02:08.937Z,84.22
2023-05-21T08:04:40.745Z,84.06
2023-05-21T08:07:09.196Z,83.96
2023-05-21T08:09:37.407Z,83.74
2023-05-21T08:12:05.646Z,83.01
2023-05-21T08:14:33.552Z,82.66
2023-05-21T08:17:01.517Z,82.41
2023-05-21T08:19:29.482Z,81.57
2023-05-21T08:21:57.500Z,81.87
2023-05-21T08:24:25.560Z,81.49
2023-05-21T08:26:53.588Z,80.53
2023-05-21T08:29:21.598Z,79.88
2023-05-21T08:31:49.633Z,79.75
2023-05-21T08:34:17.868Z,79.52
2023-05-21T08:36:47.538Z,79.15
2023-05-21T08:39:15.459Z,79.23
2023-05-21T08:41:50.684Z,79.20
2023-05-21T08:44:23.183Z,78.96
2023-05-21T08:46:52.667Z,78.72
2023-05-21T08:49:27.796Z,78.52
2023-05-21T08:51:57.062Z,78.07
2023-05-21T08:54:25.405Z,78.00
2023-05-21T08:56:54.814Z,77.52
2023-05-21T08:59:23.032Z,77.01
2023-05-21T09:01:51.399Z,76.57
2023-05-21T09:04:21.868Z,75.98
2023-05-21T09:06:50.312Z,75.56
2023-05-21T09:09:35.488Z,75.05
2023-05-21T09:12:03.738Z,73.89
2023-05-21T09:14:32.744Z,74.39
2023-05-21T09:17:01.049Z,74.33
2023-05-21T09:19:31.533Z,73.79
2023-05-21T09:22:06.143Z,73.56
2023-05-21T09:24:36.239Z,72.59
2023-05-21T09:27:07.873Z,72.75
2023-05-21T09:29:36.859Z,72.20
2023-05-21T09:32:08.864Z,71.63
2023-05-21T09:34:38.475Z,70.98
2023-05-21T09:37:16.519Z,70.93
2023-05-21T09:39:54.356Z,70.26
2023-05-21T09:42:23.344Z,70.05
2023-05-21T09:44:51.504Z,69.73
2023-05-21T09:47:21.752Z,69.41
2023-05-21T09:49:50.620Z,68.66
2023-05-21T09:52:26.714Z,68.36
2023-05-21T09:54:55.133Z,67.78
2023-05-21T09:57:27.584Z,68.05
2023-05-21T09:59:55.568Z,67.45
2023-05-21T10:02:24.676Z,67.54
2023-05-21T10:04:55.494Z,67.44
2023-05-21T10:07:27.498Z,67.31
2023-05-21T10:09:59.529Z,67.28
2023-05-21T10:12:31.748Z,67.23
2023-05-21T10:15:05.527Z,67.29
2023-05-21T10:17:34.074Z,67.28
2023-05-21T10:20:03.344Z,67.44
2023-05-21T10:22:32.025Z,67.52
2023-05-21T10:25:00.796Z,67.84
2023-05-21T10:27:32.449Z,67.82
2023-05-21T10:30:01.499Z,67.66
2023-05-21T10:32:29.599Z,67.11
2023-05-21T10:34:59.411Z,66.44
2023-05-21T10:37:30.059Z,66.02
2023-05-21T10:39:58.573Z,64.96
2023-05-21T10:42:32.697Z,64.28
2023-05-21T10:45:36.381Z,62.38
2023-05-21T10:48:25.731Z,60.59
2023-05-21T10:51:16.160Z,60.88
2023-05-21T10:54:05.797Z,59.80
2023-05-21T10:56:44.631Z,58.36
2023-05-21T10:59:28.888Z,59.10
2023-05-21T11:01:58.283Z,58.69
2023-05-21T11:04:30.864Z,59.14
2023-05-21T11:07:00.506Z,58.12
2023-05-21T11:09:28.493Z,58.20
2023-05-21T11:12:00.588Z,57.62
2023-05-21T11:14:39.911Z,55.96
2023-05-21T11:17:08.063Z,56.07
2023-05-21T11:19:40.164Z,55.21
2023-05-21T11:22:28.531Z,53.73
2023-05-21T11:25:02.858Z,53.77
2023-05-21T11:27:36.992Z,53.02
2023-05-21T11:30:10.074Z,51.04
2023-05-21T11:32:40.253Z,51.71
2023-05-21T11:35:09.189Z,51.45
2023-05-21T11:37:37.366Z,51.42
2023-05-21T11:40:19.905Z,51.35
2023-05-21T11:42:56.275Z,51.53
2023-05-21T11:45:29.865Z,52.33
2023-05-21T11:47:58.016Z,52.92
2023-05-21T11:50:27.084Z,53.16
2023-05-21T11:52:55.214Z,52.95
2023-05-21T11:55:25.260Z,52.42
2023-05-21T11:57:56.750Z,51.89
2023-05-21T12:00:24.943Z,49.79
2023-05-21T12:02:54.350Z,49.88
2023-05-21T12:05:23.005Z,49.23
2023-05-21T12:07:51.702Z,49.08
2023-05-21T12:10:23.045Z,48.65
2023-05-21T12:12:56.480Z,47.78
2023-05-21T12:15:27.254Z,48.03
2023-05-21T12:17:56.377Z,47.88
2023-05-21T12:20:25.175Z,48.06
2023-05-21T12:22:53.209Z,48.55
2023-05-21T12:25:22.271Z,48.93
2023-05-21T12:27:59.143Z,48.93
2023-05-21T12:30:27.936Z,48.76
2023-05-21T12:32:59.448Z,48.21
2023-05-21T12:35:27.584Z,47.52
2023-05-21T12:37:55.944Z,47.41
2023-05-21T12:40:24.023Z,47.15
2023-05-21T12:42:52.962Z,46.93
2023-05-21T12:45:22.306Z,47.13
2023-05-21T12:47:57.232Z,47.44
2023-05-21T12:50:25.246Z,47.62
2023-05-21T12:52:56.217Z,47.51
2023-05-21T12:55:26.792Z,47.53
2023-05-21T12:58:09.728Z,47.70
2023-05-21T13:00:38.376Z,45.84
2023-05-21T13:03:07.608Z,46.45
2023-05-21T13:05:35.934Z,46.09
2023-05-21T13:08:04.128Z,45.92
2023-05-21T13:10:32.230Z,45.93
2023-05-21T13:13:00.408Z,46.17
2023-05-21T13:15:28.528Z,46.14
2023-05-21T13:17:57.133Z,45.76
2023-05-21T13:20:27.839Z,45.72
2023-05-21T13:22:55.939Z,45.73
2023-05-21T13:25:26.069Z,45.81
2023-05-21T13:27:54.540Z,45.23
2023-05-21T13:30:23.745Z,45.21
2023-05-21T13:32:51.864Z,45.51
2023-05-21T13:35:20.003Z,45.35
2023-05-21T13:37:47.965Z,45.17
2023-05-21T13:40:17.111Z,44.87
2023-05-21T13:42:46.859Z,44.68
2023-05-21T13:45:17.080Z,44.63
2023-05-21T13:47:46.299Z,44.50
2023-05-21T13:50:14.603Z,44.66
2023-05-21T13:52:42.808Z,44.55
2023-05-21T13:55:11.887Z,44.44
2023-05-21T13:57:41.794Z,44.46
2023-05-21T14:00:11.842Z,44.44
2023-05-21T14:02:40.050Z,44.61
2023-05-21T14:05:08.243Z,44.29
2023-05-21T14:07:36.253Z,43.64
2023-05-21T14:10:04.278Z,43.28
2023-05-21T14:12:32.450Z,43.51
2023-05-21T14:15:00.410Z,43.73
2023-05-21T14:17:28.501Z,44.13
2023-05-21T14:19:57.117Z,44.39
2023-05-21T14:22:25.257Z,44.45
2023-05-21T14:24:54.032Z,44.45
2023-05-21T14:27:22.060Z,44.31
2023-05-21T14:29:50.023Z,44.43
2023-05-21T14:32:19.777Z,44.69
2023-05-21T14:34:47.720Z,44.94
2023-05-21T14:37:15.652Z,45.18
2023-05-21T14:39:43.623Z,45.53
2023-05-21T14:42:11.558Z,45.90
2023-05-21T14:44:39.467Z,46.54
2023-05-21T14:47:07.347Z,46.92
2023-05-21T14:49:35.214Z,47.03
2023-05-21T14:52:03.124Z,47.25
2023-05-21T14:54:31.114Z,47.48
2023-05-21T14:56:59.041Z,47.61
2023-05-21T14:59:26.940Z,47.47
2023-05-21T15:01:55.256Z,47.38
2023-05-21T15:04:23.205Z,47.35
2023-05-21T15:06:51.731Z,47.25
2023-05-21T15:09:19.641Z,47.16
2023-05-21T15:11:47.706Z,46.92
2023-05-21T15:14:15.635Z,46.88
2023-05-21T15:16:43.629Z,46.92
2023-05-21T15:19:13.134Z,46.96
2023-05-21T15:21:41.150Z,46.79
2023-05-21T15:24:09.083Z,46.42
2023-05-21T15:26:36.981Z,46.11
2023-05-21T15:29:05.355Z,45.92
2023-05-21T15:31:34.161Z,45.72
2023-05-21T15:34:02.227Z,45.59
2023-05-21T15:36:30.129Z,44.38
2023-05-21T15:38:58.004Z,44.87
2023-05-21T15:41:25.961Z,45.23
2023-05-21T15:43:53.917Z,44.73
2023-05-21T15:46:22.412Z,45.18
2023-05-21T15:48:50.334Z,45.49
2023-05-21T15:51:18.522Z,45.73
2023-05-21T15:53:46.800Z,45.85
2023-05-21T15:56:14.914Z,45.48
2023-05-21T15:58:42.884Z,44.74
2023-05-21T16:01:10.836Z,44.49
2023-05-21T16:03:38.928Z,44.41
2023-05-21T16:06:08.630Z,44.15
2023-05-21T16:08:36.561Z,44.03
2023-05-21T16:11:04.550Z,44.52
2023-05-21T16:13:32.561Z,44.68
2023-05-21T16:16:00.440Z,44.74
2023-05-21T16:18:28.458Z,44.76
2023-05-21T16:20:59.465Z,44.79
2023-05-21T16:23:27.859Z,44.53
2023-05-21T16:25:55.905Z,44.68
2023-05-21T16:28:27.252Z,44.73
2023-05-21T16:30:55.497Z,45.04
2023-05-21T16:33:23.441Z,44.58
2023-05-21T16:35:51.934Z,44.63
2023-05-21T16:38:20.018Z,44.60
2023-05-21T16:40:48.585Z,44.76
2023-05-21T16:43:17.548Z,44.94
2023-05-21T16:45:47.792Z,45.43
2023-05-21T16:48:17.719Z,46.05
2023-05-21T16:50:45.953Z,46.66
2023-05-21T16:53:15.098Z,46.97
2023-05-21T16:55:44.512Z,47.01
2023-05-21T16:58:14.878Z,47.11
2023-05-21T17:00:42.917Z,47.40
2023-05-21T17:03:11.051Z,47.51
2023-05-21T17:05:39.204Z,47.85
2023-05-21T17:08:07.212Z,48.18
2023-05-21T17:10:35.415Z,48.22
2023-05-21T17:13:13.949Z,48.09
2023-05-21T17:15:49.206Z,47.74
2023-05-21T17:18:17.255Z,47.93
2023-05-21T17:20:45.183Z,48.08
2023-05-21T17:23:13.492Z,48.13
2023-05-21T17:25:41.978Z,48.30
2023-05-21T17:28:10.082Z,48.52
2023-05-21T17:30:38.038Z,48.45
2023-05-21T17:33:06.029Z,48.57
2023-05-21T17:35:34.164Z,48.71
2023-05-21T17:38:02.223Z,48.96
2023-05-21T17:40:30.089Z,49.04
2023-05-21T17:42:57.984Z,49.03
2023-05-21T17:45:25.889Z,49.15
2023-05-21T17:47:54.116Z,49.35
2023-05-21T17:50:22.136Z,49.54
2023-05-21T17:52:50.092Z,49.71
2023-05-21T17:55:18.368Z,49.82
2023-05-21T17:57:47.330Z,49.94
2023-05-21T18:00:15.493Z,50.20
2023-05-21T18:02:43.599Z,50.24
2023-05-21T18:05:11.772Z,50.37
2023-05-21T18:07:40.001Z,50.55
2023-05-21T18:10:08.538Z,50.58
2023-05-21T18:12:37.189Z,50.47
2023-05-21T18:15:05.465Z,50.53
2023-05-21T18:17:33.455Z,50.57
2023-05-21T18:20:01.528Z,50.72
2023-05-21T18:22:29.503Z,50.96
2023-05-21T18:24:57.586Z,51.24
2023-05-21T18:27:25.529Z,51.40
2023-05-21T18:29:53.729Z,51.60
2023-05-21T18:32:22.216Z,51.69
2023-05-21T18:34:51.080Z,51.93
2023-05-21T18:37:19.760Z,52.11
2023-05-21T18:39:47.706Z,52.22
2023-05-21T18:42:16.023Z,52.44
2023-05-21T18:44:47.025Z,52.58
2023-05-21T18:47:15.224Z,52.84
2023-05-21T18:49:43.413Z,52.97
2023-05-21T18:52:11.400Z,53.11
2023-05-21T18:54:39.372Z,53.28
2023-05-21T18:57:07.508Z,53.38
2023-05-21T18:59:35.669Z,53.42
2023-05-21T19:02:05.891Z,53.66
2023-05-21T19:04:33.969Z,54.04
2023-05-21T19:07:02.057Z,54.14
2023-05-21T19:09:30.336Z,54.25
2023-05-21T19:11:58.774Z,54.35
2023-05-21T19:14:26.776Z,54.50
2023-05-21T19:16:54.759Z,54.55
2023-05-21T19:19:22.833Z,54.61
2023-05-21T19:21:50.879Z,54.88
2023-05-21T19:24:18.941Z,54.99
2023-05-21T19:26:47.085Z,55.00
2023-05-21T19:29:15.104Z,55.06
2023-05-21T19:31:44.266Z,55.22
2023-05-21T19:34:12.341Z,55.45
2023-05-21T19:36:52.317Z,55.56
2023-05-21T19:39:22.139Z,55.68
2023-05-21T19:41:50.191Z,55.95
2023-05-21T19:44:18.638Z,56.13
2023-05-21T19:46:46.697Z,56.33
2023-05-21T19:49:15.948Z,56.44
2023-05-21T19:51:44.051Z,56.60
2023-05-21T19:54:12.182Z,56.85
2023-05-21T19:56:40.207Z,57.25
2023-05-21T19:59:08.258Z,57.43
2023-05-21T20:01:40.825Z,57.64
2023-05-21T20:04:09.020Z,57.80
2023-05-21T20:06:37.148Z,58.80
2023-05-21T20:09:08.729Z,58.55
2023-05-21T20:11:37.486Z,58.72
2023-05-21T20:14:05.758Z,58.61
2023-05-21T20:16:34.735Z,58.63
2023-05-21T20:19:03.112Z,58.53
2023-05-21T20:21:32.894Z,58.63
2023-05-21T20:24:00.903Z,58.70
2023-05-21T20:26:28.921Z,58.92
2023-05-21T20:28:56.879Z,59.23
2023-05-21T20:31:26.574Z,59.64
2023-05-21T20:33:55.228Z,59.95
2023-05-21T20:36:23.305Z,59.99
2023-05-21T20:38:51.248Z,60.13
2023-05-21T20:41:19.289Z,60.43
2023-05-21T20:43:47.273Z,60.63
2023-05-21T20:46:15.282Z,60.77
2023-05-21T20:48:43.764Z,61.04
2023-05-21T20:51:11.925Z,61.37
2023-05-21T20:53:39.868Z,61.45
2023-05-21T20:56:09.369Z,61.50
2023-05-21T20:58:37.375Z,61.55
2023-05-21T21:01:05.365Z,61.43
2023-05-21T21:03:35.185Z,61.55
2023-05-21T21:06:03.383Z,61.64
2023-05-21T21:08:31.600Z,61.77
2023-05-21T21:10:59.522Z,62.00
2023-05-21T21:13:27.678Z,62.11
2023-05-21T21:15:55.921Z,62.16
2023-05-21T21:18:23.897Z,62.19
2023-05-21T21:20:51.858Z,62.37
2023-05-21T21:23:19.818Z,62.39
2023-05-21T21:25:48.030Z,62.54
2023-05-21T21:28:16.092Z,62.59
2023-05-21T21:30:44.049Z,62.67
2023-05-21T21:33:13.012Z,62.80
2023-05-21T21:35:41.628Z,62.74
2023-05-21T21:38:09.830Z,62.87
2023-05-21T21:40:38.048Z,62.66
2023-05-21T21:43:06.249Z,62.62
2023-05-21T21:45:34.149Z,62.54
2023-05-21T21:48:02.291Z,62.52
2023-05-21T21:50:30.286Z,62.56
2023-05-21T21:52:58.652Z,62.54
2023-05-21T21:55:26.936Z,62.60
2023-05-21T21:57:54.876Z,62.68
2023-05-21T22:00:27.663Z,62.96
2023-05-21T22:02:55.737Z,63.44
2023-05-21T22:05:23.810Z,63.21
2023-05-21T22:07:52.636Z,63.90
2023-05-21T22:10:20.705Z,63.91
2023-05-21T22:12:48.660Z,64.01
2023-05-21T22:15:29.826Z,64.32
2023-05-21T22:17:57.943Z,64.99
2023-05-21T22:20:30.571Z,64.78
2023-05-21T22:22:59.261Z,65.22
2023-05-21T22:25:27.202Z,65.17
2023-05-21T22:27:55.154Z,65.50
2023-05-21T22:30:23.135Z,65.80
2023-05-21T22:32:51.081Z,65.94
2023-05-21T22:35:20.079Z,66.39
2023-05-21T22:37:48.044Z,66.69
2023-05-21T22:40:16.083Z,66.81
2023-05-21T22:42:46.071Z,66.91
2023-05-21T22:45:14.047Z,67.04
2023-05-21T22:47:41.978Z,67.24
2023-05-21T22:50:11.493Z,67.39
2023-05-21T22:52:39.699Z,67.61
2023-05-21T22:55:07.849Z,67.83
2023-05-21T22:57:35.951Z,68.00
2023-05-21T23:00:04.082Z,68.21
2023-05-21T23:02:32.069Z,68.44
2023-05-21T23:05:00.069Z,68.61
2023-05-21T23:07:28.048Z,68.87
2023-05-21T23:09:55.946Z,69.15
2023-05-21T23:12:23.933Z,69.32
2023-05-21T23:14:51.921Z,69.50
2023-05-21T23:17:19.895Z,69.85
2023-05-21T23:19:47.814Z,69.98
2023-05-21T23:22:15.773Z,70.23
2023-05-21T23:24:43.645Z,70.54
2023-05-21T23:27:11.541Z,70.73
2023-05-21T23:29:39.526Z,70.95
2023-05-21T23:32:07.790Z,71.20
2023-05-21T23:34:35.810Z,71.37
2023-05-21T23:37:03.736Z,71.56
2023-05-21T23:39:31.789Z,71.71
2023-05-21T23:42:00.275Z,71.92
2023-05-21T23:44:28.267Z,72.16
2023-05-21T23:46:56.160Z,72.33
2023-05-21T23:49:24.108Z,72.41
2023-05-21T23:51:52.074Z,72.55
2023-05-21T23:54:20.121Z,72.75
2023-05-21T23:56:48.068Z,72.91
2023-05-21T23:59:18.369Z,72.90
